sensor_id;sensor_type;location;lat;lon;timestamp;P1;P2;P0
49064;PMS5003;34876;51.464;-0.150;2023-05-01T00:03:40;12;12;
49064;PMS5003;34876;51.464;-0.150;2023-05-01T00:06:10;13;10;
49064;PMS5003;34876;51.464;-0.150;2023-05-01T00:08:39;12;12;
49064;PMS5003;34876;51.464;-0.150;2023-05-01T00:11:14;16;15;
49064;PMS5003;34876;51.464;-0.150;2023-05-01T00:13:44;13;13;
49064;PMS5003;34876;51.464;-0.150;2023-05-01T00:16:13;11;11;
49064;PMS5003;34876;51.464;-0.150;2023-05-01T00:18:42;14;12;
49064;PMS5003;34876;51.464;-0.150;2023-05-01T00:21:12;17;12;
49064;PMS5003;34876;51.464;-0.150;2023-05-01T00:23:41;13;12;
49064;PMS5003;34876;51.464;-0.150;2023-05-01T00:26:10;12;12;
49064;PMS5003;34876;51.464;-0.150;2023-05-01T00:28:39;12;12;
49064;PMS5003;34876;51.464;-0.150;2023-05-01T00:31:09;17;15;
49064;PMS5003;34876;51.464;-0.150;2023-05-01T00:33:38;14;14;
49064;PMS5003;34876;51.464;-0.150;2023-05-01T00:36:18;14;13;
49064;PMS5003;34876;51.464;-0.150;2023-05-01T00:38:47;13;13;
49064;PMS5003;34876;51.464;-0.150;2023-05-01T00:41:17;21;14;
49064;PMS5003;34876;51.464;-0.150;2023-05-01T00:43:47;10;10;
49064;PMS5003;34876;51.464;-0.150;2023-05-01T00:46:16;12;11;
49064;PMS5003;34876;51.464;-0.150;2023-05-01T00:48:46;17;15;
49064;PMS5003;34876;51.464;-0.150;2023-05-01T00:51:14;13;13;
49064;PMS5003;34876;51.464;-0.150;2023-05-01T00:53:44;13;13;
49064;PMS5003;34876;51.464;-0.150;2023-05-01T00:56:14;15;15;
49064;PMS5003;34876;51.464;-0.150;2023-05-01T00:58:44;14;14;
49064;PMS5003;34876;51.464;-0.150;2023-05-01T01:01:29;14;14;
49064;PMS5003;34876;51.464;-0.150;2023-05-01T01:03:59;17;17;
49064;PMS5003;34876;51.464;-0.150;2023-05-01T01:06:32;17;16;
49064;PMS5003;34876;51.464;-0.150;2023-05-01T01:09:10;13;13;
49064;PMS5003;34876;51.464;-0.150;2023-05-01T01:11:56;12;11;
49064;PMS5003;34876;51.464;-0.150;2023-05-01T01:14:35;13;12;
49064;PMS5003;34876;51.464;-0.150;2023-05-01T01:17:17;14;14;
49064;PMS5003;34876;51.464;-0.150;2023-05-01T01:20:03;15;15;
49064;PMS5003;34876;51.464;-0.150;2023-05-01T01:22:49;17;13;
49064;PMS5003;34876;51.464;-0.150;2023-05-01T01:25:39;16;14;
49064;PMS5003;34876;51.464;-0.150;2023-05-01T01:28:31;16;15;
49064;PMS5003;34876;51.464;-0.150;2023-05-01T01:31:16;13;13;
49064;PMS5003;34876;51.464;-0.150;2023-05-01T01:34:00;14;14;
49064;PMS5003;34876;51.464;-0.150;2023-05-01T01:36:38;13;13;
49064;PMS5003;34876;51.464;-0.150;2023-05-01T01:39:13;16;15;
49064;PMS5003;34876;51.464;-0.150;2023-05-01T01:41:51;14;14;
49064;PMS5003;34876;51.464;-0.150;2023-05-01T01:44:32;13;13;
49064;PMS5003;34876;51.464;-0.150;2023-05-01T01:47:07;16;15;
49064;PMS5003;34876;51.464;-0.150;2023-05-01T01:49:39;16;16;
49064;PMS5003;34876;51.464;-0.150;2023-05-01T01:52:16;23;17;
49064;PMS5003;34876;51.464;-0.150;2023-05-01T01:54:53;14;14;
49064;PMS5003;34876;51.464;-0.150;2023-05-01T01:57:29;14;13;
49064;PMS5003;34876;51.464;-0.150;2023-05-01T02:00:03;14;14;
49064;PMS5003;34876;51.464;-0.150;2023-05-01T02:02:34;16;14;
49064;PMS5003;34876;51.464;-0.150;2023-05-01T02:05:06;15;15;
49064;PMS5003;34876;51.464;-0.150;2023-05-01T02:07:37;18;18;
49064;PMS5003;34876;51.464;-0.150;2023-05-01T02:10:08;15;14;
49064;PMS5003;34876;51.464;-0.150;2023-05-01T02:12:44;17;14;
49064;PMS5003;34876;51.464;-0.150;2023-05-01T02:15:16;17;16;
49064;PMS5003;34876;51.464;-0.150;2023-05-01T02:17:48;15;14;
49064;PMS5003;34876;51.464;-0.150;2023-05-01T02:20:24;17;14;
49064;PMS5003;34876;51.464;-0.150;2023-05-01T02:23:00;15;15;
49064;PMS5003;34876;51.464;-0.150;2023-05-01T02:25:34;16;16;
49064;PMS5003;34876;51.464;-0.150;2023-05-01T02:28:08;18;17;
49064;PMS5003;34876;51.464;-0.150;2023-05-01T02:30:39;17;15;
49064;PMS5003;34876;51.464;-0.150;2023-05-01T02:33:09;19;17;
49064;PMS5003;34876;51.464;-0.150;2023-05-01T02:35:40;15;14;
49064;PMS5003;34876;51.464;-0.150;2023-05-01T02:38:09;19;19;
49064;PMS5003;34876;51.464;-0.150;2023-05-01T02:40:40;14;14;
49064;PMS5003;34876;51.464;-0.150;2023-05-01T02:43:14;17;17;
49064;PMS5003;34876;51.464;-0.150;2023-05-01T02:45:52;18;17;
49064;PMS5003;34876;51.464;-0.150;2023-05-01T02:48:23;15;15;
49064;PMS5003;34876;51.464;-0.150;2023-05-01T02:51:07;18;15;
49064;PMS5003;34876;51.464;-0.150;2023-05-01T02:53:38;17;15;
49064;PMS5003;34876;51.464;-0.150;2023-05-01T02:56:12;25;22;
49064;PMS5003;34876;51.464;-0.150;2023-05-01T02:58:42;14;12;
49064;PMS5003;34876;51.464;-0.150;2023-05-01T03:01:13;19;18;
49064;PMS5003;34876;51.464;-0.150;2023-05-01T03:03:42;18;16;
49064;PMS5003;34876;51.464;-0.150;2023-05-01T03:06:12;19;16;
49064;PMS5003;34876;51.464;-0.150;2023-05-01T03:08:41;17;17;
49064;PMS5003;34876;51.464;-0.150;2023-05-01T03:11:15;15;15;
49064;PMS5003;34876;51.464;-0.150;2023-05-01T03:13:44;16;16;
49064;PMS5003;34876;51.464;-0.150;2023-05-01T03:16:13;16;14;
49064;PMS5003;34876;51.464;-0.150;2023-05-01T03:18:43;16;16;
49064;PMS5003;34876;51.464;-0.150;2023-05-01T03:21:12;15;15;
49064;PMS5003;34876;51.464;-0.150;2023-05-01T03:23:42;16;16;
49064;PMS5003;34876;51.464;-0.150;2023-05-01T03:26:12;16;16;
49064;PMS5003;34876;51.464;-0.150;2023-05-01T03:28:41;16;15;
49064;PMS5003;34876;51.464;-0.150;2023-05-01T03:31:11;18;17;
49064;PMS5003;34876;51.464;-0.150;2023-05-01T03:33:40;16;15;
49064;PMS5003;34876;51.464;-0.150;2023-05-01T03:36:09;19;16;
49064;PMS5003;34876;51.464;-0.150;2023-05-01T03:38:40;18;15;
49064;PMS5003;34876;51.464;-0.150;2023-05-01T03:41:10;16;16;
49064;PMS5003;34876;51.464;-0.150;2023-05-01T03:43:40;17;17;
49064;PMS5003;34876;51.464;-0.150;2023-05-01T03:46:09;19;19;
49064;PMS5003;34876;51.464;-0.150;2023-05-01T03:48:43;16;16;
49064;PMS5003;34876;51.464;-0.150;2023-05-01T03:51:14;20;19;
49064;PMS5003;34876;51.464;-0.150;2023-05-01T03:53:43;17;16;
49064;PMS5003;34876;51.464;-0.150;2023-05-01T03:56:13;17;15;
49064;PMS5003;34876;51.464;-0.150;2023-05-01T03:58:44;22;17;
49064;PMS5003;34876;51.464;-0.150;2023-05-01T04:01:13;17;17;
49064;PMS5003;34876;51.464;-0.150;2023-05-01T04:03:51;16;16;
49064;PMS5003;34876;51.464;-0.150;2023-05-01T04:06:20;16;16;
49064;PMS5003;34876;51.464;-0.150;2023-05-01T04:08:50;20;19;
49064;PMS5003;34876;51.464;-0.150;2023-05-01T04:11:19;19;19;
49064;PMS5003;34876;51.464;-0.150;2023-05-01T04:13:57;13;13;
49064;PMS5003;34876;51.464;-0.150;2023-05-01T04:16:26;19;17;
49064;PMS5003;34876;51.464;-0.150;2023-05-01T04:18:56;14;14;
49064;PMS5003;34876;51.464;-0.150;2023-05-01T04:21:25;17;16;
49064;PMS5003;34876;51.464;-0.150;2023-05-01T04:23:55;17;17;
49064;PMS5003;34876;51.464;-0.150;2023-05-01T04:26:23;18;16;
49064;PMS5003;34876;51.464;-0.150;2023-05-01T04:28:52;19;18;
49064;PMS5003;34876;51.464;-0.150;2023-05-01T04:31:28;16;16;
49064;PMS5003;34876;51.464;-0.150;2023-05-01T04:34:06;18;17;
49064;PMS5003;34876;51.464;-0.150;2023-05-01T04:36:36;17;17;
49064;PMS5003;34876;51.464;-0.150;2023-05-01T04:39:06;19;17;
49064;PMS5003;34876;51.464;-0.150;2023-05-01T04:41:41;17;17;
49064;PMS5003;34876;51.464;-0.150;2023-05-01T04:44:11;18;16;
49064;PMS5003;34876;51.464;-0.150;2023-05-01T04:46:40;20;19;
49064;PMS5003;34876;51.464;-0.150;2023-05-01T04:49:10;18;16;
49064;PMS5003;34876;51.464;-0.150;2023-05-01T04:51:39;17;14;
49064;PMS5003;34876;51.464;-0.150;2023-05-01T04:54:09;22;20;
49064;PMS5003;34876;51.464;-0.150;2023-05-01T04:56:39;16;16;
49064;PMS5003;34876;51.464;-0.150;2023-05-01T04:59:09;16;15;
49064;PMS5003;34876;51.464;-0.150;2023-05-01T05:01:43;16;16;
49064;PMS5003;34876;51.464;-0.150;2023-05-01T05:04:12;18;17;
49064;PMS5003;34876;51.464;-0.150;2023-05-01T05:06:42;20;18;
49064;PMS5003;34876;51.464;-0.150;2023-05-01T05:09:12;14;14;
49064;PMS5003;34876;51.464;-0.150;2023-05-01T05:11:42;18;16;
49064;PMS5003;34876;51.464;-0.150;2023-05-01T05:14:11;16;15;
49064;PMS5003;34876;51.464;-0.150;2023-05-01T05:16:41;20;19;
49064;PMS5003;34876;51.464;-0.150;2023-05-01T05:19:10;17;16;
49064;PMS5003;34876;51.464;-0.150;2023-05-01T05:21:39;17;17;
49064;PMS5003;34876;51.464;-0.150;2023-05-01T05:24:09;15;15;
49064;PMS5003;34876;51.464;-0.150;2023-05-01T05:26:39;17;16;
49064;PMS5003;34876;51.464;-0.150;2023-05-01T05:29:08;19;18;
49064;PMS5003;34876;51.464;-0.150;2023-05-01T05:31:43;18;17;
49064;PMS5003;34876;51.464;-0.150;2023-05-01T05:34:13;19;17;
49064;PMS5003;34876;51.464;-0.150;2023-05-01T05:36:48;17;17;
49064;PMS5003;34876;51.464;-0.150;2023-05-01T05:39:17;25;19;
49064;PMS5003;34876;51.464;-0.150;2023-05-01T05:41:48;19;17;
49064;PMS5003;34876;51.464;-0.150;2023-05-01T05:44:17;19;19;
49064;PMS5003;34876;51.464;-0.150;2023-05-01T05:46:46;18;17;
49064;PMS5003;34876;51.464;-0.150;2023-05-01T05:49:15;16;16;
49064;PMS5003;34876;51.464;-0.150;2023-05-01T05:51:44;18;18;
49064;PMS5003;34876;51.464;-0.150;2023-05-01T05:54:14;16;16;
49064;PMS5003;34876;51.464;-0.150;2023-05-01T05:56:48;19;19;
49064;PMS5003;34876;51.464;-0.150;2023-05-01T05:59:17;19;19;
49064;PMS5003;34876;51.464;-0.150;2023-05-01T06:01:47;21;19;
49064;PMS5003;34876;51.464;-0.150;2023-05-01T06:04:16;20;19;
49064;PMS5003;34876;51.464;-0.150;2023-05-01T06:06:45;21;20;
49064;PMS5003;34876;51.464;-0.150;2023-05-01T06:09:15;15;15;
49064;PMS5003;34876;51.464;-0.150;2023-05-01T06:11:50;18;17;
49064;PMS5003;34876;51.464;-0.150;2023-05-01T06:14:18;21;21;
49064;PMS5003;34876;51.464;-0.150;2023-05-01T06:16:47;20;19;
49064;PMS5003;34876;51.464;-0.150;2023-05-01T06:19:17;20;18;
49064;PMS5003;34876;51.464;-0.150;2023-05-01T06:21:46;18;17;
49064;PMS5003;34876;51.464;-0.150;2023-05-01T06:24:15;18;18;
49064;PMS5003;34876;51.464;-0.150;2023-05-01T06:26:45;22;21;
49064;PMS5003;34876;51.464;-0.150;2023-05-01T06:29:14;22;19;
49064;PMS5003;34876;51.464;-0.150;2023-05-01T06:31:42;19;18;
49064;PMS5003;34876;51.464;-0.150;2023-05-01T06:34:12;16;15;
49064;PMS5003;34876;51.464;-0.150;2023-05-01T06:36:41;20;20;
49064;PMS5003;34876;51.464;-0.150;2023-05-01T06:39:09;21;21;
49064;PMS5003;34876;51.464;-0.150;2023-05-01T06:41:40;19;17;
49064;PMS5003;34876;51.464;-0.150;2023-05-01T06:44:09;18;17;
49064;PMS5003;34876;51.464;-0.150;2023-05-01T06:46:38;18;18;
49064;PMS5003;34876;51.464;-0.150;2023-05-01T06:49:07;19;16;
49064;PMS5003;34876;51.464;-0.150;2023-05-01T06:51:37;18;17;
49064;PMS5003;34876;51.464;-0.150;2023-05-01T06:54:07;20;19;
49064;PMS5003;34876;51.464;-0.150;2023-05-01T06:56:37;18;16;
49064;PMS5003;34876;51.464;-0.150;2023-05-01T06:59:10;15;15;
49064;PMS5003;34876;51.464;-0.150;2023-05-01T07:01:44;19;19;
49064;PMS5003;34876;51.464;-0.150;2023-05-01T07:04:14;22;21;
49064;PMS5003;34876;51.464;-0.150;2023-05-01T07:06:43;19;17;
49064;PMS5003;34876;51.464;-0.150;2023-05-01T07:09:14;20;17;
49064;PMS5003;34876;51.464;-0.150;2023-05-01T07:11:45;16;14;
49064;PMS5003;34876;51.464;-0.150;2023-05-01T07:14:19;17;15;
49064;PMS5003;34876;51.464;-0.150;2023-05-01T07:16:48;18;18;
49064;PMS5003;34876;51.464;-0.150;2023-05-01T07:19:21;21;21;
49064;PMS5003;34876;51.464;-0.150;2023-05-01T07:21:50;21;17;
49064;PMS5003;34876;51.464;-0.150;2023-05-01T07:24:20;20;20;
49064;PMS5003;34876;51.464;-0.150;2023-05-01T07:26:49;17;16;
49064;PMS5003;34876;51.464;-0.150;2023-05-01T07:29:19;17;17;
49064;PMS5003;34876;51.464;-0.150;2023-05-01T07:31:47;18;18;
49064;PMS5003;34876;51.464;-0.150;2023-05-01T07:34:16;20;20;
49064;PMS5003;34876;51.464;-0.150;2023-05-01T07:36:47;22;21;
49064;PMS5003;34876;51.464;-0.150;2023-05-01T07:39:16;17;14;
49064;PMS5003;34876;51.464;-0.150;2023-05-01T07:41:44;16;16;
49064;PMS5003;34876;51.464;-0.150;2023-05-01T07:44:19;16;16;
49064;PMS5003;34876;51.464;-0.150;2023-05-01T07:46:51;16;16;
49064;PMS5003;34876;51.464;-0.150;2023-05-01T07:49:20;19;17;
49064;PMS5003;34876;51.464;-0.150;2023-05-01T07:51:50;20;17;
49064;PMS5003;34876;51.464;-0.150;2023-05-01T07:54:21;23;22;
49064;PMS5003;34876;51.464;-0.150;2023-05-01T07:56:51;18;17;
49064;PMS5003;34876;51.464;-0.150;2023-05-01T07:59:19;21;16;
49064;PMS5003;34876;51.464;-0.150;2023-05-01T08:01:52;19;18;
49064;PMS5003;34876;51.464;-0.150;2023-05-01T08:04:23;23;20;
49064;PMS5003;34876;51.464;-0.150;2023-05-01T08:06:52;24;23;
49064;PMS5003;34876;51.464;-0.150;2023-05-01T08:09:22;17;17;
49064;PMS5003;34876;51.464;-0.150;2023-05-01T08:11:52;18;18;
49064;PMS5003;34876;51.464;-0.150;2023-05-01T08:14:23;16;16;
49064;PMS5003;34876;51.464;-0.150;2023-05-01T08:16:53;18;18;
49064;PMS5003;34876;51.464;-0.150;2023-05-01T08:19:23;21;21;
49064;PMS5003;34876;51.464;-0.150;2023-05-01T08:21:53;19;17;
49064;PMS5003;34876;51.464;-0.150;2023-05-01T08:24:23;18;18;
49064;PMS5003;34876;51.464;-0.150;2023-05-01T08:26:54;20;20;
49064;PMS5003;34876;51.464;-0.150;2023-05-01T08:29:22;18;18;
49064;PMS5003;34876;51.464;-0.150;2023-05-01T08:31:52;18;17;
49064;PMS5003;34876;51.464;-0.150;2023-05-01T08:34:22;23;20;
49064;PMS5003;34876;51.464;-0.150;2023-05-01T08:36:51;18;18;
49064;PMS5003;34876;51.464;-0.150;2023-05-01T08:39:20;17;17;
49064;PMS5003;34876;51.464;-0.150;2023-05-01T08:41:49;17;17;
49064;PMS5003;34876;51.464;-0.150;2023-05-01T08:44:20;18;17;
49064;PMS5003;34876;51.464;-0.150;2023-05-01T08:46:55;19;19;
49064;PMS5003;34876;51.464;-0.150;2023-05-01T08:49:35;20;19;
49064;PMS5003;34876;51.464;-0.150;2023-05-01T08:52:12;20;17;
49064;PMS5003;34876;51.464;-0.150;2023-05-01T08:54:42;19;19;
49064;PMS5003;34876;51.464;-0.150;2023-05-01T08:57:13;19;18;
49064;PMS5003;34876;51.464;-0.150;2023-05-01T08:59:45;19;18;
49064;PMS5003;34876;51.464;-0.150;2023-05-01T09:02:16;19;18;
49064;PMS5003;34876;51.464;-0.150;2023-05-01T09:04:46;19;18;
49064;PMS5003;34876;51.464;-0.150;2023-05-01T09:07:17;20;19;
49064;PMS5003;34876;51.464;-0.150;2023-05-01T09:09:46;17;17;
49064;PMS5003;34876;51.464;-0.150;2023-05-01T09:12:17;19;19;
49064;PMS5003;34876;51.464;-0.150;2023-05-01T09:14:56;16;16;
49064;PMS5003;34876;51.464;-0.150;2023-05-01T09:17:31;17;17;
49064;PMS5003;34876;51.464;-0.150;2023-05-01T09:20:02;20;18;
49064;PMS5003;34876;51.464;-0.150;2023-05-01T09:22:32;21;17;
49064;PMS5003;34876;51.464;-0.150;2023-05-01T09:25:03;18;17;
49064;PMS5003;34876;51.464;-0.150;2023-05-01T09:27:34;19;16;
49064;PMS5003;34876;51.464;-0.150;2023-05-01T09:30:05;20;19;
49064;PMS5003;34876;51.464;-0.150;2023-05-01T09:32:42;18;18;
49064;PMS5003;34876;51.464;-0.150;2023-05-01T09:35:12;17;17;
49064;PMS5003;34876;51.464;-0.150;2023-05-01T09:37:43;20;20;
49064;PMS5003;34876;51.464;-0.150;2023-05-01T09:40:17;20;20;
49064;PMS5003;34876;51.464;-0.150;2023-05-01T09:42:51;18;18;
49064;PMS5003;34876;51.464;-0.150;2023-05-01T09:45:22;16;16;
49064;PMS5003;34876;51.464;-0.150;2023-05-01T09:47:51;22;16;
49064;PMS5003;34876;51.464;-0.150;2023-05-01T09:50:40;19;19;
49064;PMS5003;34876;51.464;-0.150;2023-05-01T09:53:10;14;14;
49064;PMS5003;34876;51.464;-0.150;2023-05-01T09:55:38;16;16;
49064;PMS5003;34876;51.464;-0.150;2023-05-01T09:58:10;18;17;
49064;PMS5003;34876;51.464;-0.150;2023-05-01T10:00:55;20;18;
49064;PMS5003;34876;51.464;-0.150;2023-05-01T10:03:26;17;17;
49064;PMS5003;34876;51.464;-0.150;2023-05-01T10:05:59;14;13;
49064;PMS5003;34876;51.464;-0.150;2023-05-01T10:08:33;17;14;
49064;PMS5003;34876;51.464;-0.150;2023-05-01T10:11:18;14;13;
49064;PMS5003;34876;51.464;-0.150;2023-05-01T10:14:09;23;20;
49064;PMS5003;34876;51.464;-0.150;2023-05-01T10:16:38;18;18;
49064;PMS5003;34876;51.464;-0.150;2023-05-01T10:19:08;19;18;
49064;PMS5003;34876;51.464;-0.150;2023-05-01T10:21:40;17;16;
49064;PMS5003;34876;51.464;-0.150;2023-05-01T10:24:13;17;17;
49064;PMS5003;34876;51.464;-0.150;2023-05-01T10:26:47;17;16;
49064;PMS5003;34876;51.464;-0.150;2023-05-01T10:29:23;21;19;
49064;PMS5003;34876;51.464;-0.150;2023-05-01T10:31:58;19;18;
49064;PMS5003;34876;51.464;-0.150;2023-05-01T10:34:31;17;17;
49064;PMS5003;34876;51.464;-0.150;2023-05-01T10:37:08;15;14;
49064;PMS5003;34876;51.464;-0.150;2023-05-01T10:39:40;20;17;
49064;PMS5003;34876;51.464;-0.150;2023-05-01T10:42:10;16;16;
49064;PMS5003;34876;51.464;-0.150;2023-05-01T10:44:39;16;15;
49064;PMS5003;34876;51.464;-0.150;2023-05-01T10:49:39;24;22;
49064;PMS5003;34876;51.464;-0.150;2023-05-01T10:52:44;20;19;
49064;PMS5003;34876;51.464;-0.150;2023-05-01T10:55:44;19;19;
49064;PMS5003;34876;51.464;-0.150;2023-05-01T10:58:54;14;14;
49064;PMS5003;34876;51.464;-0.150;2023-05-01T11:01:30;19;16;
49064;PMS5003;34876;51.464;-0.150;2023-05-01T11:04:02;22;20;
49064;PMS5003;34876;51.464;-0.150;2023-05-01T11:06:33;15;15;
49064;PMS5003;34876;51.464;-0.150;2023-05-01T11:09:34;21;18;
49064;PMS5003;34876;51.464;-0.150;2023-05-01T11:12:04;17;16;
49064;PMS5003;34876;51.464;-0.150;2023-05-01T11:15:07;15;15;
49064;PMS5003;34876;51.464;-0.150;2023-05-01T11:17:44;17;17;
49064;PMS5003;34876;51.464;-0.150;2023-05-01T11:20:47;15;15;
49064;PMS5003;34876;51.464;-0.150;2023-05-01T11:23:17;18;15;
49064;PMS5003;34876;51.464;-0.150;2023-05-01T11:25:48;16;16;
49064;PMS5003;34876;51.464;-0.150;2023-05-01T11:28:18;18;18;
49064;PMS5003;34876;51.464;-0.150;2023-05-01T11:30:48;16;15;
49064;PMS5003;34876;51.464;-0.150;2023-05-01T11:33:22;17;17;
49064;PMS5003;34876;51.464;-0.150;2023-05-01T11:35:57;15;14;
49064;PMS5003;34876;51.464;-0.150;2023-05-01T11:38:27;20;18;
49064;PMS5003;34876;51.464;-0.150;2023-05-01T11:40:58;15;14;
49064;PMS5003;34876;51.464;-0.150;2023-05-01T11:43:29;13;13;
49064;PMS5003;34876;51.464;-0.150;2023-05-01T11:45:59;19;18;
49064;PMS5003;34876;51.464;-0.150;2023-05-01T11:48:28;13;13;
49064;PMS5003;34876;51.464;-0.150;2023-05-01T11:51:10;18;14;
49064;PMS5003;34876;51.464;-0.150;2023-05-01T11:53:40;15;13;
49064;PMS5003;34876;51.464;-0.150;2023-05-01T11:56:24;14;13;
49064;PMS5003;34876;51.464;-0.150;2023-05-01T11:58:52;14;12;
49064;PMS5003;34876;51.464;-0.150;2023-05-01T12:01:31;13;13;
49064;PMS5003;34876;51.464;-0.150;2023-05-01T12:04:00;13;12;
49064;PMS5003;34876;51.464;-0.150;2023-05-01T12:06:38;17;14;
49064;PMS5003;34876;51.464;-0.150;2023-05-01T12:09:09;11;11;
49064;PMS5003;34876;51.464;-0.150;2023-05-01T12:11:39;11;11;
49064;PMS5003;34876;51.464;-0.150;2023-05-01T12:14:09;17;16;
49064;PMS5003;34876;51.464;-0.150;2023-05-01T12:16:40;16;16;
49064;PMS5003;34876;51.464;-0.150;2023-05-01T12:19:12;14;11;
49064;PMS5003;34876;51.464;-0.150;2023-05-01T12:21:41;15;13;
49064;PMS5003;34876;51.464;-0.150;2023-05-01T12:24:11;13;13;
49064;PMS5003;34876;51.464;-0.150;2023-05-01T12:26:42;13;11;
49064;PMS5003;34876;51.464;-0.150;2023-05-01T12:29:11;12;11;
49064;PMS5003;34876;51.464;-0.150;2023-05-01T12:31:44;11;11;
49064;PMS5003;34876;51.464;-0.150;2023-05-01T12:34:16;12;11;
49064;PMS5003;34876;51.464;-0.150;2023-05-01T12:37:02;12;12;
49064;PMS5003;34876;51.464;-0.150;2023-05-01T12:39:35;12;11;
49064;PMS5003;34876;51.464;-0.150;2023-05-01T12:42:13;12;12;
49064;PMS5003;34876;51.464;-0.150;2023-05-01T12:44:42;11;9;
49064;PMS5003;34876;51.464;-0.150;2023-05-01T12:47:12;17;13;
49064;PMS5003;34876;51.464;-0.150;2023-05-01T12:49:41;14;11;
49064;PMS5003;34876;51.464;-0.150;2023-05-01T12:52:11;8;8;
49064;PMS5003;34876;51.464;-0.150;2023-05-01T12:54:42;10;10;
49064;PMS5003;34876;51.464;-0.150;2023-05-01T12:57:12;10;10;
49064;PMS5003;34876;51.464;-0.150;2023-05-01T12:59:47;12;12;
49064;PMS5003;34876;51.464;-0.150;2023-05-01T13:02:29;12;12;
49064;PMS5003;34876;51.464;-0.150;2023-05-01T13:05:08;10;10;
49064;PMS5003;34876;51.464;-0.150;2023-05-01T13:07:39;17;16;
49064;PMS5003;34876;51.464;-0.150;2023-05-01T13:10:28;8;8;
49064;PMS5003;34876;51.464;-0.150;2023-05-01T13:12:58;11;10;
49064;PMS5003;34876;51.464;-0.150;2023-05-01T13:15:27;8;8;
49064;PMS5003;34876;51.464;-0.150;2023-05-01T13:18:02;12;12;
49064;PMS5003;34876;51.464;-0.150;2023-05-01T13:20:31;12;10;
49064;PMS5003;34876;51.464;-0.150;2023-05-01T13:23:08;11;11;
49064;PMS5003;34876;51.464;-0.150;2023-05-01T13:25:38;10;10;
49064;PMS5003;34876;51.464;-0.150;2023-05-01T13:28:08;8;8;
49064;PMS5003;34876;51.464;-0.150;2023-05-01T13:30:38;9;7;
49064;PMS5003;34876;51.464;-0.150;2023-05-01T13:33:08;10;8;
49064;PMS5003;34876;51.464;-0.150;2023-05-01T13:35:44;10;10;
49064;PMS5003;34876;51.464;-0.150;2023-05-01T13:38:13;12;9;
49064;PMS5003;34876;51.464;-0.150;2023-05-01T13:40:44;9;8;
49064;PMS5003;34876;51.464;-0.150;2023-05-01T13:43:14;8;7;
49064;PMS5003;34876;51.464;-0.150;2023-05-01T13:45:46;8;7;
49064;PMS5003;34876;51.464;-0.150;2023-05-01T13:48:15;8;8;
49064;PMS5003;34876;51.464;-0.150;2023-05-01T13:50:46;8;6;
49064;PMS5003;34876;51.464;-0.150;2023-05-01T13:53:16;7;7;
49064;PMS5003;34876;51.464;-0.150;2023-05-01T13:55:46;9;7;
49064;PMS5003;34876;51.464;-0.150;2023-05-01T13:58:15;8;8;
49064;PMS5003;34876;51.464;-0.150;2023-05-01T14:00:43;6;6;
49064;PMS5003;34876;51.464;-0.150;2023-05-01T14:03:13;7;7;
49064;PMS5003;34876;51.464;-0.150;2023-05-01T14:05:46;7;7;
49064;PMS5003;34876;51.464;-0.150;2023-05-01T14:08:20;7;7;
49064;PMS5003;34876;51.464;-0.150;2023-05-01T14:10:58;6;6;
49064;PMS5003;34876;51.464;-0.150;2023-05-01T14:13:32;7;7;
49064;PMS5003;34876;51.464;-0.150;2023-05-01T14:16:04;7;7;
49064;PMS5003;34876;51.464;-0.150;2023-05-01T14:18:35;7;6;
49064;PMS5003;34876;51.464;-0.150;2023-05-01T14:21:19;7;7;
49064;PMS5003;34876;51.464;-0.150;2023-05-01T14:23:49;7;5;
49064;PMS5003;34876;51.464;-0.150;2023-05-01T14:26:19;5;5;
49064;PMS5003;34876;51.464;-0.150;2023-05-01T14:28:50;7;7;
49064;PMS5003;34876;51.464;-0.150;2023-05-01T14:31:24;9;7;
49064;PMS5003;34876;51.464;-0.150;2023-05-01T14:33:55;6;6;
49064;PMS5003;34876;51.464;-0.150;2023-05-01T14:36:27;5;5;
49064;PMS5003;34876;51.464;-0.150;2023-05-01T14:38:58;6;6;
49064;PMS5003;34876;51.464;-0.150;2023-05-01T14:41:29;6;6;
49064;PMS5003;34876;51.464;-0.150;2023-05-01T14:44:00;4;4;
49064;PMS5003;34876;51.464;-0.150;2023-05-01T14:46:33;5;5;
49064;PMS5003;34876;51.464;-0.150;2023-05-01T14:49:08;4;4;
49064;PMS5003;34876;51.464;-0.150;2023-05-01T14:51:45;6;6;
49064;PMS5003;34876;51.464;-0.150;2023-05-01T14:54:16;9;9;
49064;PMS5003;34876;51.464;-0.150;2023-05-01T14:56:47;5;5;
49064;PMS5003;34876;51.464;-0.150;2023-05-01T14:59:16;5;5;
49064;PMS5003;34876;51.464;-0.150;2023-05-01T15:01:45;5;4;
49064;PMS5003;34876;51.464;-0.150;2023-05-01T15:04:14;5;5;
49064;PMS5003;34876;51.464;-0.150;2023-05-01T15:06:42;6;5;
49064;PMS5003;34876;51.464;-0.150;2023-05-01T15:09:12;6;6;
49064;PMS5003;34876;51.464;-0.150;2023-05-01T15:11:42;4;4;
49064;PMS5003;34876;51.464;-0.150;2023-05-01T15:14:12;5;5;
49064;PMS5003;34876;51.464;-0.150;2023-05-01T15:16:40;6;6;
49064;PMS5003;34876;51.464;-0.150;2023-05-01T15:19:08;7;7;
49064;PMS5003;34876;51.464;-0.150;2023-05-01T15:21:43;5;5;
49064;PMS5003;34876;51.464;-0.150;2023-05-01T15:24:12;4;4;
49064;PMS5003;34876;51.464;-0.150;2023-05-01T15:26:42;4;4;
49064;PMS5003;34876;51.464;-0.150;2023-05-01T15:29:11;6;6;
49064;PMS5003;34876;51.464;-0.150;2023-05-01T15:31:39;4;4;
49064;PMS5003;34876;51.464;-0.150;2023-05-01T15:34:09;5;5;
49064;PMS5003;34876;51.464;-0.150;2023-05-01T15:36:38;4;4;
49064;PMS5003;34876;51.464;-0.150;2023-05-01T15:39:13;5;4;
49064;PMS5003;34876;51.464;-0.150;2023-05-01T15:41:43;2;2;
49064;PMS5003;34876;51.464;-0.150;2023-05-01T15:44:12;5;4;
49064;PMS5003;34876;51.464;-0.150;2023-05-01T15:46:42;4;4;
49064;PMS5003;34876;51.464;-0.150;2023-05-01T15:49:13;6;3;
49064;PMS5003;34876;51.464;-0.150;2023-05-01T15:51:44;5;5;
49064;PMS5003;34876;51.464;-0.150;2023-05-01T15:54:13;5;5;
49064;PMS5003;34876;51.464;-0.150;2023-05-01T15:56:43;4;4;
49064;PMS5003;34876;51.464;-0.150;2023-05-01T15:59:12;4;4;
49064;PMS5003;34876;51.464;-0.150;2023-05-01T16:01:42;4;4;
49064;PMS5003;34876;51.464;-0.150;2023-05-01T16:04:12;4;4;
49064;PMS5003;34876;51.464;-0.150;2023-05-01T16:06:41;6;4;
49064;PMS5003;34876;51.464;-0.150;2023-05-01T16:09:11;6;4;
49064;PMS5003;34876;51.464;-0.150;2023-05-01T16:11:42;6;6;
49064;PMS5003;34876;51.464;-0.150;2023-05-01T16:14:10;5;4;
49064;PMS5003;34876;51.464;-0.150;2023-05-01T16:16:43;4;3;
49064;PMS5003;34876;51.464;-0.150;2023-05-01T16:19:16;4;4;
49064;PMS5003;34876;51.464;-0.150;2023-05-01T16:21:47;5;5;
49064;PMS5003;34876;51.464;-0.150;2023-05-01T16:24:17;4;4;
49064;PMS5003;34876;51.464;-0.150;2023-05-01T16:26:47;3;3;
49064;PMS5003;34876;51.464;-0.150;2023-05-01T16:29:21;6;5;
49064;PMS5003;34876;51.464;-0.150;2023-05-01T16:31:51;5;5;
49064;PMS5003;34876;51.464;-0.150;2023-05-01T16:34:23;5;5;
49064;PMS5003;34876;51.464;-0.150;2023-05-01T16:36:53;5;5;
49064;PMS5003;34876;51.464;-0.150;2023-05-01T16:39:21;3;3;
49064;PMS5003;34876;51.464;-0.150;2023-05-01T16:41:52;4;4;
49064;PMS5003;34876;51.464;-0.150;2023-05-01T16:44:22;4;4;
49064;PMS5003;34876;51.464;-0.150;2023-05-01T16:46:52;3;3;